Time;durP1;ratioP1;P1;durP2;ratioP2;P2;SDS_P1;SDS_P2;PMS_P1;PMS_P2;Temp;Humidity;BMP_temperature;BMP_pressure;BME280_temperature;BME280_humidity;BME280_pressure;Samples;Min_cycle;Max_cycle;Signal;HPM_P1;HPM_P2
2021/12/03 00:00:12;;;;;;;18.90;9.38;;;;;;;1.64;82.71;98056.13;4919903;29;20036;-79
2021/12/03 00:02:38;;;;;;;;;;;;;;;1.78;82.76;98077.47;4922041;29;20098;-79
2021/12/03 00:05:04;;;;;;;15.60;7.82;;;;;;;1.72;82.51;98077.47;4922476;29;20005;-80
2021/12/03 00:07:30;;;;;;;16.98;8.60;;;;;;;1.74;82.66;98078.31;4905249;29;20047;-79
2021/12/03 00:09:59;;;;;;;17.85;7.75;;;;;;;1.63;82.96;98067.22;4921249;29;20055;-78
2021/12/03 00:12:24;;;;;;;15.77;7.80;;;;;;;1.64;82.67;98092.88;4904080;29;20043;-78
2021/12/03 00:14:50;;;;;;;15.73;7.78;;;;;;;1.56;82.76;98063.78;4903227;29;20110;-77
2021/12/03 00:17:16;;;;;;;16.08;7.68;;;;;;;1.42;82.87;98045.00;4919761;29;20047;-78
2021/12/03 00:19:42;;;;;;;16.88;7.40;;;;;;;1.64;82.70;98074.91;4918079;29;20576;-79
2021/12/03 00:22:07;;;;;;;14.95;7.70;;;;;;;1.76;82.90;98097.13;4921738;29;20040;-78
2021/12/03 00:24:34;;;;;;;17.58;8.45;;;;;;;1.73;82.75;98092.00;4919545;29;20051;-78
2021/12/03 00:26:59;;;;;;;19.15;7.68;;;;;;;1.63;83.16;98078.31;4919416;29;20066;-78
2021/12/03 00:29:25;;;;;;;18.95;7.82;;;;;;;1.81;83.18;98112.50;4893738;29;20520;-79
2021/12/03 00:31:51;;;;;;;14.40;7.85;;;;;;;1.77;83.22;98096.28;4923741;29;20059;-78
2021/12/03 00:34:17;;;;;;;13.48;7.65;;;;;;;1.85;82.60;98100.56;4924152;29;20052;-78
2021/12/03 00:36:42;;;;;;;16.83;7.63;;;;;;;1.79;82.66;98081.75;4927009;29;20044;-79
2021/12/03 00:39:08;;;;;;;14.93;8.02;;;;;;;1.85;83.03;98083.44;4904955;29;20099;-78
2021/12/03 00:41:41;;;;;;;15.25;7.10;;;;;;;1.74;83.02;98062.09;4922239;29;20582;-78
2021/12/03 00:44:07;;;;;;;13.75;7.78;;;;;;;1.91;83.18;98087.69;4936033;29;20052;-79
2021/12/03 00:46:33;;;;;;;12.07;7.57;;;;;;;1.83;83.03;98084.31;4936032;29;20040;-78
2021/12/03 00:48:59;;;;;;;13.10;7.55;;;;;;;1.80;82.98;98083.44;4918679;29;20067;-76
2021/12/03 00:51:25;;;;;;;15.18;7.03;;;;;;;1.80;82.86;98083.44;4902931;29;20032;-77
2021/12/03 00:53:52;;;;;;;14.23;7.65;;;;;;;1.83;82.64;98089.44;4924991;29;20102;-79
2021/12/03 00:56:17;;;;;;;14.23;7.10;;;;;;;1.86;82.88;98090.28;4908552;29;20028;-78
2021/12/03 00:58:44;;;;;;;15.43;7.53;;;;;;;1.70;82.81;98065.50;4921388;29;20095;-77
2021/12/03 01:01:10;;;;;;;15.15;7.47;;;;;;;1.79;83.10;98081.75;4920448;29;20044;-79
2021/12/03 01:03:38;;;;;;;16.25;7.05;;;;;;;1.82;83.19;98082.59;4919613;29;20051;-77
2021/12/03 01:06:04;;;;;;;13.75;7.22;;;;;;;1.94;83.04;98103.09;4921896;29;20052;-78
2021/12/03 01:08:31;;;;;;;14.65;7.68;;;;;;;1.63;83.16;98046.72;4903681;29;20044;-78
2021/12/03 01:10:58;;;;;;;11.10;7.10;;;;;;;1.88;83.02;98087.69;4919481;29;20054;-76
2021/12/03 01:13:23;;;;;;;14.23;7.28;;;;;;;1.98;82.93;98107.38;4916968;29;20072;-79
2021/12/03 01:15:50;;;;;;;13.93;7.38;;;;;;;2.00;82.95;98103.09;4903070;29;20505;-77
2021/12/03 01:18:18;;;;;;;14.63;7.15;;;;;;;1.88;82.82;98072.31;4920167;29;20040;-77
2021/12/03 01:20:45;;;;;;;13.20;7.45;;;;;;;1.91;82.77;98072.31;4918245;29;20050;-78
2021/12/03 01:23:12;;;;;;;11.23;6.80;;;;;;;2.08;83.09;98098.81;4919099;29;20048;-77
2021/12/03 01:25:41;;;;;;;15.00;7.75;;;;;;;2.07;82.76;98091.09;4880756;29;20152;-77
2021/12/03 01:28:08;;;;;;;13.75;8.15;;;;;;;1.90;82.79;98073.16;4918885;29;20044;-79
2021/12/03 01:30:34;;;;;;;15.00;7.80;;;;;;;2.06;82.67;98094.53;4919456;29;20067;-78
2021/12/03 01:33:01;;;;;;;13.93;7.43;;;;;;;2.01;82.93;98097.09;4920316;29;20040;-76
2021/12/03 01:35:27;;;;;;;13.02;7.13;;;;;;;2.06;82.65;98104.78;4920158;29;20059;-78
2021/12/03 01:37:53;;;;;;;13.70;7.50;;;;;;;2.14;82.82;98115.03;4919719;29;20130;-77
2021/12/03 01:40:23;;;;;;;12.40;7.03;;;;;;;2.08;82.94;98108.22;4903538;29;20139;-78
2021/12/03 01:42:49;;;;;;;13.70;7.95;;;;;;;1.98;83.06;98093.69;4906418;29;20046;-79
2021/12/03 01:45:19;;;;;;;14.77;7.32;;;;;;;2.22;82.74;98133.84;4921630;29;20099;-78
2021/12/03 01:47:48;;;;;;;12.27;7.05;;;;;;;2.19;82.88;98118.47;4919529;29;20036;-77
2021/12/03 01:50:15;;;;;;;13.80;6.97;;;;;;;2.20;82.78;98122.72;4933963;29;20529;-79
2021/12/03 01:52:41;;;;;;;13.85;7.32;;;;;;;2.20;82.89;98133.88;4906526;29;20071;-78
2021/12/03 01:55:10;;;;;;;12.77;7.40;;;;;;;2.05;82.86;98103.94;4918543;29;20510;-77
2021/12/03 01:57:36;;;;;;;12.77;7.30;;;;;;;2.08;82.51;98103.94;4919588;29;20510;-78
2021/12/03 02:00:09;;;;;;;13.90;7.22;;;;;;;2.15;82.69;98127.88;4922021;29;20051;-78
2021/12/03 02:02:38;;;;;;;11.95;6.45;;;;;;;1.97;82.59;98100.53;4919964;29;20063;-77
2021/12/03 02:05:04;;;;;;;14.75;7.85;;;;;;;2.23;82.65;98143.25;4917614;29;20044;-78
2021/12/03 02:07:30;;;;;;;12.52;7.25;;;;;;;2.24;82.49;98144.97;4910868;29;20517;-78
2021/12/03 02:09:56;;;;;;;13.98;7.72;;;;;;;2.26;83.26;98150.97;4918180;29;20050;-77
2021/12/03 02:12:22;;;;;;;11.98;7.13;;;;;;;2.14;82.73;98128.75;4919186;29;20075;-77
2021/12/03 02:14:48;;;;;;;15.45;7.85;;;;;;;2.32;82.76;98157.78;4918233;29;20178;-78
2021/12/03 02:17:14;;;;;;;13.73;7.60;;;;;;;2.32;82.71;98153.50;4918834;29;20059;-79
2021/12/03 02:19:43;;;;;;;14.30;7.63;;;;;;;2.28;82.87;98145.81;4918845;29;20505;-79
2021/12/03 02:22:09;;;;;;;15.80;8.20;;;;;;;2.35;82.63;98168.06;4917236;29;20098;-76
2021/12/03 02:24:36;;;;;;;18.25;8.05;;;;;;;2.35;82.27;98168.06;4919932;29;20048;-77
2021/12/03 02:27:02;;;;;;;15.88;7.78;;;;;;;2.35;82.88;98170.63;4918105;29;20063;-77
2021/12/03 02:29:28;;;;;;;16.42;7.82;;;;;;;2.06;82.89;98118.50;4920325;29;20138;-76
2021/12/03 02:31:54;;;;;;;14.27;7.95;;;;;;;2.11;82.57;98133.88;4932692;29;20106;-79
2021/12/03 02:34:20;;;;;;;14.93;7.82;;;;;;;1.97;82.64;98115.91;4902665;29;20102;-79
2021/12/03 02:36:45;;;;;;;17.10;7.60;;;;;;;2.33;82.65;98173.19;4916456;29;20147;-78
2021/12/03 02:39:11;;;;;;;14.18;7.53;;;;;;;2.30;83.02;98172.34;4904380;29;20123;-78
2021/12/03 02:41:37;;;;;;;17.50;8.00;;;;;;;2.24;83.05;98168.91;4922905;29;20409;-78
2021/12/03 02:44:06;;;;;;;19.23;8.23;;;;;;;2.16;82.74;98156.94;4904710;29;20051;-77
2021/12/03 02:46:32;;;;;;;14.55;7.45;;;;;;;1.84;82.93;98129.63;4924473;29;20044;-77
2021/12/03 02:48:58;;;;;;;16.08;7.72;;;;;;;2.02;83.02;98157.84;4924155;29;20139;-77
2021/12/03 02:51:23;;;;;;;16.40;7.72;;;;;;;2.05;82.62;98164.66;4925184;29;20506;-77
2021/12/03 02:53:49;;;;;;;12.65;7.05;;;;;;;1.91;82.84;98139.88;4929429;29;20051;-77
2021/12/03 02:56:15;;;;;;;13.30;7.45;;;;;;;2.02;82.43;98156.97;4910212;29;20539;-78
2021/12/03 02:58:41;;;;;;;14.27;7.13;;;;;;;1.68;82.58;98105.69;4924080;29;20115;-78
2021/12/03 03:01:09;;;;;;;17.52;8.32;;;;;;;1.76;82.47;98133.03;4926171;29;20040;-76
2021/12/03 03:03:35;;;;;;;14.05;7.68;;;;;;;1.85;82.94;98159.56;4938001;29;20032;-77
2021/12/03 03:06:03;;;;;;;15.38;8.27;;;;;;;1.62;83.00;98148.41;4941254;29;20071;-78
2021/12/03 03:08:29;;;;;;;20.27;9.80;;;;;;;1.72;83.01;98180.06;4941100;29;20050;-78
2021/12/03 03:10:57;;;;;;;18.40;9.40;;;;;;;1.62;82.43;98178.34;4940351;29;20091;-79
2021/12/03 03:13:23;;;;;;;18.08;9.93;;;;;;;1.67;82.91;98180.91;4931497;29;20055;-76
2021/12/03 03:15:51;;;;;;;16.67;9.40;;;;;;;1.71;82.75;98191.16;4940041;29;20157;-78
2021/12/03 03:18:20;;;;;;;16.48;9.10;;;;;;;1.78;82.77;98194.59;4939392;29;20040;-78
2021/12/03 03:20:46;;;;;;;16.45;9.05;;;;;;;1.78;82.79;98197.16;4912808;29;20133;-78
2021/12/03 03:23:15;;;;;;;18.83;9.20;;;;;;;1.83;82.74;98189.47;4922143;29;20036;-77
2021/12/03 03:25:42;;;;;;;16.58;8.73;;;;;;;1.82;82.70;98187.75;4939658;29;20106;-79
2021/12/03 03:28:10;;;;;;;16.27;9.23;;;;;;;1.94;82.59;98188.63;4901457;29;20111;-77
2021/12/03 03:30:37;;;;;;;18.63;9.63;;;;;;;1.98;82.76;98189.47;4925117;29;20138;-77
2021/12/03 03:33:04;;;;;;;17.98;8.60;;;;;;;2.02;82.67;98180.06;4920569;29;20609;-78
2021/12/03 03:35:30;;;;;;;17.45;9.05;;;;;;;1.99;83.03;98185.22;4919727;29;20280;-79
2021/12/03 03:37:59;;;;;;;23.33;9.65;;;;;;;2.14;83.11;98208.28;4920210;29;20055;-77
2021/12/03 03:40:25;;;;;;;20.25;10.25;;;;;;;1.97;82.90;98163.84;4892151;29;20045;-77
2021/12/03 03:42:50;;;;;;;14.90;8.77;;;;;;;2.20;82.45;98184.34;4918347;29;20650;-79
2021/12/03 03:45:19;;;;;;;19.50;9.27;;;;;;;2.26;82.29;98208.28;4923262;29;21171;-78
2021/12/03 03:47:47;;;;;;;15.88;8.32;;;;;;;2.11;82.34;98187.75;4919981;29;20040;-81
2021/12/03 03:50:16;;;;;;;18.73;9.52;;;;;;;2.32;82.38;98221.97;4935661;28;20105;-78
2021/12/03 03:52:46;;;;;;;15.73;8.90;;;;;;;2.21;82.40;98188.59;4922769;29;20183;-77
2021/12/03 03:55:14;;;;;;;17.27;8.73;;;;;;;2.27;82.62;98186.03;4923994;29;20043;-79
2021/12/03 03:57:43;;;;;;;13.82;8.93;;;;;;;2.41;82.09;98209.13;4912983;29;20062;-76
2021/12/03 04:00:13;;;;;;;14.55;8.45;;;;;;;2.34;82.49;98195.44;4924068;29;20126;-78
2021/12/03 04:02:40;;;;;;;17.10;9.25;;;;;;;2.13;82.60;98156.94;4920830;29;20059;-76
2021/12/03 04:05:07;;;;;;;16.65;8.63;;;;;;;2.45;82.26;98212.53;4924181;29;20146;-78
2021/12/03 04:07:32;;;;;;;13.98;8.68;;;;;;;2.34;82.22;98200.56;4926151;29;20077;-76
2021/12/03 04:09:58;;;;;;;18.13;9.27;;;;;;;2.26;82.50;98192.88;4924987;29;20151;-79
2021/12/03 04:12:24;;;;;;;18.92;9.88;;;;;;;2.18;82.20;98188.59;4907048;29;20103;-78
2021/12/03 04:14:50;;;;;;;19.65;9.63;;;;;;;2.28;82.30;98225.38;4908966;29;20040;-77
2021/12/03 04:17:16;;;;;;;18.65;9.60;;;;;;;2.07;82.54;98202.31;4924224;29;20135;-79
2021/12/03 04:19:43;;;;;;;19.17;9.90;;;;;;;2.12;82.35;98220.28;4924974;29;20067;-77
2021/12/03 04:22:14;;;;;;;21.58;10.48;;;;;;;2.06;82.32;98200.59;4920265;29;20535;-77
2021/12/03 04:24:40;;;;;;;21.08;10.13;;;;;;;2.18;82.46;98229.69;4927358;29;20197;-78
2021/12/03 04:27:06;;;;;;;19.00;9.98;;;;;;;2.10;82.60;98222.81;4935023;29;20046;-77
2021/12/03 04:29:32;;;;;;;17.65;9.48;;;;;;;2.05;82.62;98223.69;4939798;29;20047;-76
2021/12/03 04:31:57;;;;;;;19.58;10.10;;;;;;;2.21;82.43;98245.06;4932107;29;20063;-77
2021/12/03 04:34:24;;;;;;;16.35;9.48;;;;;;;2.16;82.29;98233.94;4921435;29;20051;-76
2021/12/03 04:36:50;;;;;;;20.67;10.27;;;;;;;2.08;82.05;98234.81;4921955;29;20055;-77
2021/12/03 04:39:16;;;;;;;18.05;10.15;;;;;;;2.23;82.85;98253.63;4921793;29;20076;-76
2021/12/03 04:41:41;;;;;;;17.67;9.63;;;;;;;2.27;82.32;98255.34;4921255;29;20461;-75
2021/12/03 04:44:10;;;;;;;16.10;8.77;;;;;;;2.08;81.97;98223.69;4922167;29;20056;-78
2021/12/03 04:46:36;;;;;;;16.45;9.30;;;;;;;2.20;82.07;98233.97;4920209;29;20043;-77
2021/12/03 04:49:02;;;;;;;15.60;9.02;;;;;;;2.34;82.23;98262.19;4921801;29;20047;-77
2021/12/03 04:51:27;;;;;;;20.08;9.98;;;;;;;2.11;82.35;98228.81;4919743;29;20044;-77
2021/12/03 04:53:53;;;;;;;17.40;9.40;;;;;;;2.16;82.44;98254.47;4903672;29;20063;-78
2021/12/03 04:56:19;;;;;;;20.58;9.60;;;;;;;2.16;82.41;98249.34;4920959;29;20047;-80
2021/12/03 04:58:45;;;;;;;19.27;9.43;;;;;;;2.14;82.05;98253.63;4919839;29;20047;-75
2021/12/03 05:01:11;;;;;;;17.55;9.55;;;;;;;2.19;82.30;98265.63;4920730;29;20485;-77
2021/12/03 05:03:37;;;;;;;16.88;8.93;;;;;;;2.18;82.49;98268.16;4919693;29;22029;-77
2021/12/03 05:06:04;;;;;;;16.30;8.63;;;;;;;2.26;82.31;98264.75;4920325;29;20067;-78
2021/12/03 05:08:30;;;;;;;16.90;9.35;;;;;;;2.36;82.44;98275.88;4918880;29;20122;-77
2021/12/03 05:10:57;;;;;;;20.35;10.05;;;;;;;2.39;82.30;98283.56;4919670;29;20506;-78
2021/12/03 05:13:29;;;;;;;17.73;10.02;;;;;;;2.29;82.06;98266.47;4918762;29;20052;-79
2021/12/03 05:15:56;;;;;;;16.80;9.77;;;;;;;2.41;82.03;98289.56;4908051;29;20460;-76
2021/12/03 05:18:24;;;;;;;17.70;9.57;;;;;;;2.31;82.28;98276.75;4921222;29;20044;-76
2021/12/03 05:20:51;;;;;;;18.55;9.18;;;;;;;2.38;82.01;98281.88;4920130;29;20079;-78
2021/12/03 05:23:19;;;;;;;18.25;9.13;;;;;;;2.32;81.80;98276.72;4920093;29;20650;-77
2021/12/03 05:25:46;;;;;;;15.35;9.05;;;;;;;2.37;82.04;98287.84;4920855;29;20039;-78
2021/12/03 05:28:12;;;;;;;15.63;9.23;;;;;;;2.23;82.02;98274.16;4916249;29;20065;-77
2021/12/03 05:30:38;;;;;;;14.55;8.90;;;;;;;2.43;81.90;98317.81;4919666;29;20135;-75
2021/12/03 05:33:05;;;;;;;18.50;9.65;;;;;;;2.35;81.77;98306.69;4919718;29;20040;-78
2021/12/03 05:35:31;;;;;;;16.33;9.23;;;;;;;2.44;81.85;98309.25;4919202;29;20059;-74
2021/12/03 05:37:57;;;;;;;16.35;9.93;;;;;;;2.16;81.91;98272.44;4919131;29;20565;-77
2021/12/03 05:40:23;;;;;;;16.10;9.15;;;;;;;2.13;81.50;98275.88;4919856;29;20036;-76
2021/12/03 05:42:49;;;;;;;16.58;9.05;;;;;;;2.33;82.16;98308.41;4918606;29;20044;-76
2021/12/03 05:45:19;;;;;;;17.95;9.30;;;;;;;2.41;81.87;98327.25;4933902;29;20040;-78
2021/12/03 05:47:44;;;;;;;16.58;9.20;;;;;;;2.28;81.87;98308.41;4926285;29;20043;-77
2021/12/03 05:50:12;;;;;;;14.90;9.13;;;;;;;2.44;82.00;98336.66;4919353;29;20038;-75
2021/12/03 05:52:37;;;;;;;16.85;10.25;;;;;;;2.28;81.61;98304.97;4933919;29;20110;-75
2021/12/03 05:55:05;;;;;;;14.30;8.65;;;;;;;2.31;82.13;98307.53;4919612;29;20043;-76
2021/12/03 05:57:31;;;;;;;17.27;9.25;;;;;;;2.46;81.92;98332.38;4918993;29;20051;-79
2021/12/03 05:59:57;;;;;;;15.43;9.57;;;;;;;2.39;81.93;98316.97;4919295;29;20194;-77
2021/12/03 06:02:22;;;;;;;16.60;9.13;;;;;;;2.44;82.19;98328.94;4918734;29;20065;-76
2021/12/03 06:04:48;;;;;;;17.70;9.85;;;;;;;2.55;82.08;98346.06;4920442;29;20044;-77
2021/12/03 06:07:14;;;;;;;18.23;10.35;;;;;;;2.59;81.72;98349.50;4903556;29;20592;-79
2021/12/03 06:09:41;;;;;;;16.98;10.20;;;;;;;2.56;81.77;98344.34;4895908;29;20134;-76
2021/12/03 06:12:08;;;;;;;17.38;9.68;;;;;;;2.68;81.71;98359.78;4917815;29;20107;-77
2021/12/03 06:14:33;;;;;;;17.02;10.23;;;;;;;2.69;81.44;98360.63;4903676;29;20124;-77
2021/12/03 06:16:59;;;;;;;19.52;10.32;;;;;;;2.70;81.50;98363.19;4922930;29;20075;-76
2021/12/03 06:19:25;;;;;;;18.35;9.60;;;;;;;2.67;81.64;98363.19;4903708;29;20044;-75
2021/12/03 06:21:51;;;;;;;18.90;9.70;;;;;;;2.52;81.47;98338.38;4918972;29;20523;-76
2021/12/03 06:24:17;;;;;;;17.52;9.88;;;;;;;2.51;81.36;98343.50;4920372;29;20043;-77
2021/12/03 06:26:43;;;;;;;18.60;9.93;;;;;;;2.63;81.28;98366.63;4919063;29;20174;-76
2021/12/03 06:29:09;;;;;;;19.83;10.10;;;;;;;2.68;81.43;98352.06;4920365;29;20119;-78
2021/12/03 06:31:35;;;;;;;15.20;8.50;;;;;;;2.82;81.45;98346.06;4918528;29;20079;-75
2021/12/03 06:34:01;;;;;;;17.25;8.95;;;;;;;3.24;81.43;98348.56;4919023;29;20046;-77
2021/12/03 06:36:26;;;;;;;17.98;9.55;;;;;;;3.73;81.25;98355.25;4918453;29;20075;-76
2021/12/03 06:38:53;;;;;;;14.07;8.70;;;;;;;4.13;80.98;98357.63;4919900;29;20046;-77
2021/12/03 06:41:19;;;;;;;14.68;8.75;;;;;;;4.66;80.57;98365.00;4888522;29;20442;-78
2021/12/03 06:43:44;;;;;;;14.68;8.25;;;;;;;5.08;80.16;98349.16;4902308;29;20047;-78
2021/12/03 06:46:10;;;;;;;17.30;8.63;;;;;;;5.55;79.75;98340.06;4919363;29;20058;-75
2021/12/03 06:48:36;;;;;;;13.45;8.77;;;;;;;6.17;79.09;98366.84;4921168;29;20052;-79
2021/12/03 06:51:02;;;;;;;14.25;8.32;;;;;;;6.51;78.81;98374.09;4918577;29;20070;-77
2021/12/03 06:53:40;;;;;;;14.40;8.35;;;;;;;6.83;78.59;98369.31;4886992;29;20046;-77
2021/12/03 06:56:08;;;;;;;12.43;8.30;;;;;;;7.13;77.65;98354.13;4920062;29;20163;-77
2021/12/03 06:58:34;;;;;;;14.35;7.60;;;;;;;6.81;77.09;98332.28;4919623;29;20039;-79
2021/12/03 07:01:00;;;;;;;13.93;8.38;;;;;;;6.50;76.48;98390.50;4875530;29;20100;-77
2021/12/03 07:03:26;;;;;;;13.98;8.18;;;;;;;5.97;76.83;98405.81;4923047;29;20052;-77
2021/12/03 07:05:52;;;;;;;14.07;8.38;;;;;;;5.54;76.98;98415.75;4925215;29;20043;-79
2021/12/03 07:08:18;;;;;;;13.15;8.73;;;;;;;5.20;77.53;98418.69;4925466;29;20035;-78
2021/12/03 07:10:44;;;;;;;20.00;12.45;;;;;;;4.76;76.89;98407.84;4925242;29;20108;-76
2021/12/03 07:13:10;;;;;;;13.82;8.98;;;;;;;4.37;77.33;98387.53;4928064;29;20054;-79
2021/12/03 07:15:36;;;;;;;16.33;10.45;;;;;;;4.22;77.25;98390.19;4924747;29;20059;-81
2021/12/03 07:18:11;;;;;;;15.70;9.02;;;;;;;4.30;77.94;98397.88;4906698;29;20036;-77
2021/12/03 07:24:16;;;;;;;15.90;9.95;;;;;;;4.03;78.05;98403.16;4903816;29;20155;-79
2021/12/03 07:26:42;;;;;;;13.35;8.48;;;;;;;3.92;77.32;98369.75;4933961;29;20078;-77
2021/12/03 07:29:08;;;;;;;13.20;7.75;;;;;;;4.03;78.02;98361.13;4929946;29;20050;-77
2021/12/03 07:31:34;;;;;;;13.85;8.80;;;;;;;4.18;78.52;98371.34;4897763;29;20051;-78
2021/12/03 07:34:00;;;;;;;12.50;8.02;;;;;;;4.15;77.39;98380.81;4932014;29;20039;-76
2021/12/03 07:36:26;;;;;;;15.02;8.38;;;;;;;3.92;77.48;98356.03;4898566;29;20142;-78
2021/12/03 07:38:51;;;;;;;14.30;8.93;;;;;;;4.09;77.80;98406.56;4930792;29;20043;-77
2021/12/03 07:41:17;;;;;;;15.25;8.95;;;;;;;4.04;77.56;98419.47;4915108;29;20166;-79
2021/12/03 07:43:43;;;;;;;15.90;8.85;;;;;;;3.86;78.29;98392.94;4927489;29;20040;-78
2021/12/03 07:46:09;;;;;;;13.10;8.10;;;;;;;3.99;78.12;98424.63;4927429;29;20135;-76
2021/12/03 07:48:36;;;;;;;15.18;8.45;;;;;;;3.97;77.33;98448.66;4907447;29;20138;-78
2021/12/03 07:51:01;;;;;;;16.30;8.35;;;;;;;3.63;77.51;98407.63;4924190;29;20039;-79
2021/12/03 07:53:27;;;;;;;14.35;8.43;;;;;;;3.81;77.62;98437.56;4914568;29;20095;-78
2021/12/03 07:55:54;;;;;;;13.60;8.43;;;;;;;3.82;77.99;98439.28;4932092;29;20122;-77
2021/12/03 07:58:20;;;;;;;14.50;7.85;;;;;;;3.66;78.37;98426.47;4918717;29;20674;-77
2021/12/03 08:00:54;;;;;;;15.88;8.35;;;;;;;3.46;77.78;98417.09;4914155;29;20097;-79
2021/12/03 08:03:21;;;;;;;13.85;8.35;;;;;;;3.22;78.26;98374.25;4921082;29;20112;-79
2021/12/03 08:05:49;;;;;;;13.88;8.43;;;;;;;3.59;78.04;98432.47;4936349;29;20886;-79
2021/12/03 08:08:26;;;;;;;11.75;7.45;;;;;;;3.07;78.15;98336.63;4921857;29;20067;-79
2021/12/03 08:10:53;;;;;;;12.82;7.85;;;;;;;3.08;78.13;98350.31;4947675;29;20036;-79
2021/12/03 08:13:19;;;;;;;13.40;7.85;;;;;;;2.68;78.11;98284.41;4930187;29;20040;-79
2021/12/03 08:15:51;;;;;;;13.13;6.95;;;;;;;2.21;78.20;98230.53;4918091;29;20148;-83
2021/12/03 08:18:26;;;;;;;14.43;8.23;;;;;;;2.97;78.50;98327.19;4947187;29;20047;-78
2021/12/03 08:21:09;;;;;;;13.35;8.18;;;;;;;3.79;78.67;98440.16;4934126;29;20093;-80
2021/12/03 08:23:34;;;;;;;12.55;7.60;;;;;;;3.76;78.32;98420.41;4938623;29;20047;-79
2021/12/03 08:26:00;;;;;;;12.75;7.20;;;;;;;3.73;78.29;98411.88;4941922;29;20072;-77
2021/12/03 08:28:26;;;;;;;14.32;7.70;;;;;;;3.73;77.76;98406.72;4936098;29;20074;-80
2021/12/03 08:30:52;;;;;;;10.70;7.32;;;;;;;3.71;78.67;98395.56;4930304;29;20051;-79
2021/12/03 08:33:18;;;;;;;13.10;7.00;;;;;;;3.88;78.81;98429.81;4933053;29;20062;-77
2021/12/03 08:35:43;;;;;;;11.55;7.13;;;;;;;3.66;77.83;98371.56;4915235;29;20043;-79
2021/12/03 08:38:09;;;;;;;10.75;6.82;;;;;;;3.43;77.84;98351.94;4925347;29;20044;-76
2021/12/03 08:40:35;;;;;;;11.15;7.22;;;;;;;3.13;77.57;98305.72;4925901;29;20534;-80
2021/12/03 08:43:01;;;;;;;13.98;7.40;;;;;;;3.91;77.81;98442.66;4928060;29;20107;-79
2021/12/03 08:45:27;;;;;;;10.52;6.95;;;;;;;3.81;78.01;98415.28;4925219;29;20048;-79
2021/12/03 08:47:58;;;;;;;12.77;7.10;;;;;;;4.10;78.08;98465.75;4929248;29;20146;-82
2021/12/03 08:50:34;;;;;;;10.95;6.75;;;;;;;3.74;77.99;98385.28;4929069;29;20036;-80
2021/12/03 08:55:39;;;;;;;10.13;6.70;;;;;;;4.14;78.07;98436.56;4926586;29;20067;-83
2021/12/03 08:58:06;;;;;;;10.82;6.53;;;;;;;4.31;78.06;98456.22;4908064;29;20048;-79
2021/12/03 09:00:36;;;;;;;13.18;7.35;;;;;;;4.33;77.58;98457.97;4894600;29;20044;-80
2021/12/03 09:03:03;;;;;;;11.00;7.35;;;;;;;4.36;77.39;98457.94;4924141;29;20047;-80
2021/12/03 09:05:31;;;;;;;10.55;7.22;;;;;;;4.42;77.80;98469.06;4937908;29;20052;-79
2021/12/03 09:07:57;;;;;;;10.02;6.30;;;;;;;4.33;77.01;98451.94;4922055;29;20505;-80
2021/12/03 09:10:25;;;;;;;9.80;6.50;;;;;;;4.19;77.14;98434.00;4925112;29;20047;-78
2021/12/03 09:12:52;;;;;;;10.32;6.80;;;;;;;4.15;77.26;98432.31;4907381;29;20493;-79
2021/12/03 09:15:25;;;;;;;12.00;6.25;;;;;;;4.14;78.14;98446.88;4890426;29;20517;-78
2021/12/03 09:18:35;;;;;;;10.95;7.22;;;;;;;4.20;77.44;98464.00;4890733;29;20120;-79
2021/12/03 09:20:51;;;;;;;9.68;6.55;;;;;;;4.26;77.67;98460.56;4905924;29;20057;-78
2021/12/03 09:23:38;;;;;;;10.52;6.85;;;;;;;4.30;77.14;98475.16;4907103;29;20040;-80
2021/12/03 09:26:13;;;;;;;11.02;6.57;;;;;;;4.11;77.81;98446.88;4927311;29;20043;-80
2021/12/03 09:28:43;;;;;;;10.40;7.85;;;;;;;4.24;77.85;98477.75;4922678;29;20077;-78
2021/12/03 09:31:11;;;;;;;12.80;7.10;;;;;;;4.17;77.63;98476.94;4938127;29;20500;-79
2021/12/03 09:33:40;;;;;;;11.27;6.82;;;;;;;3.60;77.44;98393.91;4903441;29;20449;-80
2021/12/03 09:36:08;;;;;;;11.70;6.97;;;;;;;4.17;77.54;98475.19;4910635;29;20046;-79
2021/12/03 09:38:35;;;;;;;9.73;6.15;;;;;;;4.15;77.10;98469.19;4926188;29;21043;-81
2021/12/03 09:41:07;;;;;;;11.63;6.68;;;;;;;4.15;77.26;98458.03;4925602;29;20505;-80
2021/12/03 09:43:41;;;;;;;12.75;7.18;;;;;;;3.92;77.48;98426.38;4910025;29;20506;-81
2021/12/03 09:51:22;;;;;;;9.55;6.60;;;;;;;4.02;77.50;98436.66;4927801;29;20490;-79
2021/12/03 09:56:19;;;;;;;;;;;;;;;4.12;77.28;98482.06;4922929;29;20071;-80
2021/12/03 10:01:45;;;;;;;10.38;6.50;;;;;;;3.84;77.81;98458.16;4921503;29;20045;-81
2021/12/03 10:04:34;;;;;;;11.38;6.30;;;;;;;3.83;77.77;98475.31;4888251;29;20138;-80
2021/12/03 10:20:37;;;;;;;11.90;6.70;;;;;;;4.07;77.71;98476.09;4917928;29;20501;-79
2021/12/03 10:32:14;;;;;;;10.98;6.60;;;;;;;3.92;77.44;98462.41;4894914;29;20446;-79
2021/12/03 10:42:25;;;;;;;11.32;5.88;;;;;;;3.91;77.80;98450.41;4921090;29;20072;-80
2021/12/03 10:48:14;;;;;;;10.00;6.47;;;;;;;3.85;78.34;98452.13;4899845;29;19918;-78
2021/12/03 10:53:31;;;;;;;13.35;6.35;;;;;;;3.63;77.34;98444.47;4904057;29;20043;-78
2021/12/03 10:56:27;;;;;;;15.63;6.90;;;;;;;3.83;77.24;98484.75;4920189;29;20491;-79
2021/12/03 10:59:21;;;;;;;12.32;5.97;;;;;;;3.61;76.92;98459.06;4936188;29;20059;-78
2021/12/03 11:30:22;;;;;;;13.52;6.85;;;;;;;3.75;77.40;98479.63;4925256;29;20047;-78
2021/12/03 12:07:52;;;;;;;14.32;7.05;;;;;;;3.71;77.67;98493.34;4923147;29;20044;-77
2021/12/03 13:01:12;;;;;;;10.38;6.68;;;;;;;3.27;77.31;98433.41;4922967;29;20392;-76
2021/12/03 13:09:14;;;;;;;11.73;6.95;;;;;;;3.10;77.90;98405.97;4924133;29;20043;-76
2021/12/03 14:38:42;;;;;;;15.05;8.05;;;;;;;3.35;77.95;98390.53;4915348;29;20047;-79
2021/12/03 14:42:21;;;;;;;15.25;8.57;;;;;;;3.37;77.56;98400.81;4922729;29;20047;-79
2021/12/03 14:48:42;;;;;;;17.77;9.70;;;;;;;3.15;78.03;98382.88;4869445;29;20504;-78
2021/12/03 14:54:32;;;;;;;17.95;9.57;;;;;;;3.16;78.56;98387.16;4921354;29;20048;-76
2021/12/03 14:57:13;;;;;;;16.42;9.82;;;;;;;3.10;77.89;98382.00;4919127;29;20054;-78
2021/12/03 15:08:23;;;;;;;15.60;8.98;;;;;;;2.64;78.44;98316.97;4921549;29;20571;-79
2021/12/03 15:27:58;;;;;;;21.70;10.82;;;;;;;2.41;78.48;98304.13;4933465;29;20063;-78
2021/12/03 16:08:52;;;;;;;16.85;8.90;;;;;;;2.24;80.35;98278.44;4884385;29;20056;-76
2021/12/03 16:46:43;;;;;;;17.67;9.52;;;;;;;2.39;81.03;98156.94;4893670;29;20651;-80
2021/12/03 16:56:09;;;;;;;16.88;8.73;;;;;;;2.69;80.63;98165.38;4866413;29;20102;-76
2021/12/03 16:58:40;;;;;;;20.38;10.07;;;;;;;3.16;80.39;98243.19;4884780;29;20039;-78
2021/12/03 17:14:42;;;;;;;;;;;;;;;;;;;;;
2021/12/03 17:54:56;;;;;;;18.52;9.85;;;;;;;2.78;79.87;98196.22;4928979;29;20055;-78
2021/12/03 17:59:50;;;;;;;17.13;10.30;;;;;;;2.93;80.34;98226.13;4933375;29;20067;-77
2021/12/03 18:43:14;;;;;;;21.23;12.50;;;;;;;1.97;80.68;98105.66;4926199;29;20106;-82
2021/12/03 18:48:56;;;;;;;20.15;10.63;;;;;;;2.00;81.37;98179.19;4926013;29;20047;-77
2021/12/03 18:56:47;;;;;;;21.65;10.43;;;;;;;1.82;81.40;98162.13;4922340;29;20055;-79
2021/12/03 18:59:13;;;;;;;20.92;11.18;;;;;;;2.28;81.46;98249.38;4922841;29;20048;-78
2021/12/03 19:01:54;;;;;;;28.35;11.45;;;;;;;2.01;81.20;98207.44;4923367;29;20059;-77
2021/12/03 19:07:14;;;;;;;25.73;11.73;;;;;;;2.26;81.39;98275.03;4899536;29;20287;-77
2021/12/03 19:09:49;;;;;;;27.73;13.27;;;;;;;2.17;81.14;98292.13;4922390;29;20088;-77
2021/12/03 19:12:21;;;;;;;31.73;13.02;;;;;;;2.16;81.55;98286.16;4922373;29;20050;-76
2021/12/03 19:14:50;;;;;;;28.17;12.73;;;;;;;1.86;81.63;98228.81;4920360;29;20494;-76
2021/12/03 19:17:49;;;;;;;19.50;9.88;;;;;;;2.13;81.93;98273.31;4921983;29;20040;-79
2021/12/03 19:20:18;;;;;;;21.35;9.18;;;;;;;2.01;81.83;98251.06;4929644;29;20032;-83
2021/12/03 19:22:44;;;;;;;21.63;10.45;;;;;;;2.14;81.47;98272.47;4940818;29;20075;-83
2021/12/03 19:25:10;;;;;;;19.83;9.85;;;;;;;2.01;81.76;98232.22;4928409;29;20047;-80
2021/12/03 19:27:37;;;;;;;24.77;10.30;;;;;;;1.87;81.76;98220.25;4920151;29;20529;-77
2021/12/03 19:30:04;;;;;;;23.60;10.73;;;;;;;1.98;81.69;98242.50;4929557;29;20043;-79
2021/12/03 19:32:31;;;;;;;24.75;11.13;;;;;;;2.06;81.61;98249.38;4939095;29;20035;-82
2021/12/03 19:35:01;;;;;;;22.02;10.10;;;;;;;2.00;81.72;98246.78;4931244;29;20044;-81
2021/12/03 19:37:30;;;;;;;15.48;8.30;;;;;;;2.03;81.31;98264.75;4937457;29;20050;-78